Aslo, Minnesota
Current Conditions -  °F | °C
As of 12:14 PM on Sunday 25 Jan 2015 (Local Time) from KMZH Reporting Station
Overcast Overcast  
Wind Chill: 27°   Ceiling: 12000
Heat Index: 27°   Visibility: 10mi
Dew Point: 12°   Wind: 3mph
Humidity: 55%   Direction: 90°E
Pressure: 30.01"   Gusts: NA
Location:  46.2004°N, 92.675°W
Report Text: KMZH 251814Z AUTO 09003KT 10SM SCT028 OVC120 M03/M11 A3001 RMK AO2
Loading
Personal Weather Stations






























Interactive Weather Map New forecast layout! Learn more

10-Day Weather Forecast

Advertisements
Track Severe Weather on mobile